createdAt,value
2022-10-21T00:01:41.554Z,74.90
2022-10-21T00:04:44.623Z,76.00
2022-10-21T00:07:46.383Z,82.00
2022-10-21T00:10:54.325Z,79.40
2022-10-21T00:13:56.180Z,76.40
2022-10-21T00:20:00.705Z,66.60
2022-10-21T00:26:05.039Z,96.00
2022-10-21T00:29:06.887Z,119.10
2022-10-21T00:35:10.407Z,79.80
2022-10-21T00:38:12.182Z,68.00
2022-10-21T00:44:16.324Z,71.90
2022-10-21T00:47:20.141Z,71.60
2022-10-21T00:50:34.590Z,68.50
2022-10-21T00:53:41.252Z,68.10
2022-10-21T00:56:44.824Z,63.50
2022-10-21T00:59:51.295Z,64.70
2022-10-21T01:02:54.088Z,61.60
2022-10-21T01:05:58.350Z,64.10
2022-10-21T01:09:01.324Z,62.70
2022-10-21T01:12:03.767Z,51.50
2022-10-21T01:15:12.381Z,48.30
2022-10-21T01:18:18.852Z,52.30
2022-10-21T01:21:38.858Z,54.80
2022-10-21T01:24:59.057Z,51.20
2022-10-21T01:28:10.328Z,54.70
2022-10-21T01:31:33.095Z,50.90
2022-10-21T01:34:38.283Z,62.10
2022-10-21T01:37:43.013Z,59.60
2022-10-21T01:41:07.157Z,57.20
2022-10-21T01:44:27.695Z,60.60
2022-10-21T01:47:43.719Z,60.00
2022-10-21T01:50:49.279Z,63.20
2022-10-21T01:53:55.910Z,62.30
2022-10-21T01:56:59.736Z,59.60
2022-10-21T02:00:01.988Z,64.80
2022-10-21T02:03:08.051Z,63.20
2022-10-21T02:06:10.267Z,58.90
2022-10-21T02:09:12.114Z,51.40
2022-10-21T02:12:15.288Z,57.80
2022-10-21T02:15:18.188Z,55.50
2022-10-21T02:18:24.281Z,51.90
2022-10-21T02:21:34.045Z,52.50
2022-10-21T02:24:55.972Z,52.90
2022-10-21T02:27:57.839Z,57.40
2022-10-21T02:34:15.017Z,56.50
2022-10-21T02:37:55.441Z,59.50
2022-10-21T02:41:07.151Z,64.10
2022-10-21T02:44:09.004Z,68.70
2022-10-21T02:50:17.684Z,53.80
2022-10-21T02:53:19.718Z,59.00
2022-10-21T02:56:21.610Z,55.00
2022-10-21T02:59:23.450Z,52.10
2022-10-21T03:05:27.500Z,63.80
2022-10-21T03:08:29.368Z,59.70
2022-10-21T03:14:33.035Z,85.10
2022-10-21T03:20:36.806Z,74.00
2022-10-21T03:26:40.439Z,65.70
2022-10-21T03:32:43.962Z,86.10
2022-10-21T03:35:45.790Z,96.90
2022-10-21T03:41:49.735Z,64.90
2022-10-21T03:44:53.687Z,71.40
2022-10-21T03:47:55.964Z,59.90
2022-10-21T03:50:57.722Z,64.30
2022-10-21T03:57:01.175Z,60.80
2022-10-21T04:03:05.843Z,56.70
2022-10-21T04:06:07.655Z,60.40
2022-10-21T04:12:12.375Z,52.10
2022-10-21T04:15:14.892Z,58.00
2022-10-21T04:18:16.799Z,57.60
2022-10-21T04:24:20.407Z,55.70
2022-10-21T04:27:22.163Z,64.80
2022-10-21T04:30:23.858Z,67.60
2022-10-21T04:33:25.661Z,66.50
2022-10-21T04:36:27.547Z,69.50
2022-10-21T04:42:30.870Z,52.50
2022-10-21T04:45:32.697Z,68.90
2022-10-21T04:51:36.209Z,65.60
2022-10-21T04:57:40.484Z,63.80
2022-10-21T05:00:42.143Z,59.60
2022-10-21T05:06:45.986Z,57.70
2022-10-21T05:15:51.439Z,86.60
2022-10-21T05:18:53.205Z,71.20
2022-10-21T05:21:55.329Z,64.10
2022-10-21T05:24:57.088Z,65.00
2022-10-21T05:31:00.748Z,66.60
2022-10-21T05:34:02.740Z,142.20
2022-10-21T05:37:04.520Z,88.90
2022-10-21T05:46:10.511Z,111.30
2022-10-21T05:52:15.122Z,105.40
2022-10-21T05:58:18.775Z,86.80
2022-10-21T06:01:20.854Z,78.10
2022-10-21T06:04:22.611Z,68.10
2022-10-21T06:10:28.367Z,58.20
2022-10-21T06:13:32.118Z,55.60
2022-10-21T06:16:36.926Z,56.70
2022-10-21T06:19:38.793Z,56.80
2022-10-21T06:25:43.810Z,59.90
2022-10-21T06:28:45.688Z,54.90
2022-10-21T06:31:47.459Z,55.00
2022-10-21T06:37:51.114Z,54.60
2022-10-21T06:46:56.594Z,43.30
2022-10-21T06:53:05.159Z,44.60
2022-10-21T06:56:14.255Z,51.40
2022-10-21T06:59:16.018Z,52.40
2022-10-21T07:02:17.835Z,57.70
2022-10-21T07:08:22.515Z,55.60
2022-10-21T07:11:36.767Z,50.60
2022-10-21T07:14:38.558Z,58.20
2022-10-21T07:20:42.731Z,53.60
2022-10-21T07:23:46.185Z,51.20
2022-10-21T07:26:48.740Z,49.80
2022-10-21T07:29:50.466Z,48.20
2022-10-21T07:36:13.182Z,45.90
2022-10-21T07:39:17.170Z,44.50
2022-10-21T07:42:18.934Z,45.30
2022-10-21T07:48:23.671Z,46.50
2022-10-21T07:51:28.566Z,48.60
2022-10-21T07:54:32.340Z,43.70
2022-10-21T07:57:34.186Z,51.90
2022-10-21T08:00:36.537Z,45.20
2022-10-21T08:03:39.091Z,42.70
2022-10-21T08:06:41.641Z,43.40
2022-10-21T08:09:43.399Z,45.30
2022-10-21T08:12:45.188Z,43.10
2022-10-21T08:15:50.479Z,40.30
2022-10-21T08:18:52.874Z,41.20
2022-10-21T08:21:56.872Z,41.80
2022-10-21T08:24:58.683Z,40.20
2022-10-21T08:28:00.384Z,38.00
2022-10-21T08:31:07.715Z,37.30
2022-10-21T08:34:09.937Z,35.50
2022-10-21T08:37:11.875Z,35.90
2022-10-21T08:40:14.200Z,35.60
2022-10-21T08:43:27.597Z,37.10
2022-10-21T08:46:34.168Z,32.90
2022-10-21T08:49:54.114Z,34.60
2022-10-21T08:53:01.372Z,34.60
2022-10-21T08:56:11.949Z,34.90
2022-10-21T08:59:22.296Z,31.00
2022-10-21T09:02:39.820Z,29.60
2022-10-21T09:05:59.993Z,29.70
2022-10-21T09:09:09.059Z,28.20
2022-10-21T09:12:17.014Z,28.90
2022-10-21T09:15:54.091Z,29.80
2022-10-21T09:19:32.224Z,29.10
2022-10-21T09:22:45.380Z,29.70
2022-10-21T09:26:00.758Z,31.50
2022-10-21T09:29:30.180Z,34.00
2022-10-21T09:32:35.051Z,28.20
2022-10-21T09:35:41.533Z,27.80
2022-10-21T09:38:55.237Z,28.20
2022-10-21T09:42:00.183Z,29.50
2022-10-21T09:45:07.013Z,28.90
2022-10-21T09:48:18.207Z,28.30
2022-10-21T09:51:25.085Z,27.10
2022-10-21T09:54:30.331Z,28.30
2022-10-21T09:57:32.097Z,26.40
2022-10-21T10:00:44.523Z,25.70
2022-10-21T10:03:48.577Z,25.20
2022-10-21T10:06:50.715Z,24.50
2022-10-21T10:09:52.475Z,25.20
2022-10-21T10:12:59.160Z,25.50
2022-10-21T10:16:22.920Z,29.00
2022-10-21T10:19:27.632Z,26.90
2022-10-21T10:22:35.920Z,25.70
2022-10-21T10:25:39.225Z,23.40
2022-10-21T10:31:50.969Z,26.10
2022-10-21T10:34:56.392Z,23.90
2022-10-21T10:38:00.002Z,28.20
2022-10-21T10:41:08.788Z,23.30
2022-10-21T10:44:31.196Z,25.40
2022-10-21T10:47:41.831Z,23.90
2022-10-21T10:50:45.015Z,28.10
2022-10-21T10:53:59.739Z,25.60
2022-10-21T10:57:05.433Z,22.90
2022-10-21T11:00:17.478Z,23.00
2022-10-21T11:03:26.470Z,26.30
2022-10-21T11:06:39.070Z,24.50
2022-10-21T11:09:40.915Z,23.00
2022-10-21T11:12:42.985Z,23.20
2022-10-21T11:16:00.019Z,23.70
2022-10-21T11:19:19.232Z,25.40
2022-10-21T11:22:24.889Z,22.50
2022-10-21T11:25:38.363Z,23.10
2022-10-21T11:28:50.549Z,24.20
2022-10-21T11:32:11.678Z,22.70
2022-10-21T11:35:32.512Z,21.10
2022-10-21T11:39:21.242Z,21.80
2022-10-21T11:42:31.942Z,22.60
2022-10-21T11:45:33.659Z,22.10
2022-10-21T11:48:54.539Z,19.70
2022-10-21T11:52:02.441Z,23.90
2022-10-21T11:55:32.421Z,30.20
2022-10-21T11:58:37.304Z,23.10
2022-10-21T12:01:46.980Z,21.80
2022-10-21T12:05:17.131Z,20.20
2022-10-21T12:08:28.659Z,20.30
2022-10-21T12:11:39.776Z,18.10
2022-10-21T12:14:50.324Z,19.00
2022-10-21T12:17:52.716Z,17.30
2022-10-21T12:20:56.269Z,16.90
2022-10-21T12:24:22.674Z,16.80
2022-10-21T12:27:42.496Z,17.20
2022-10-21T12:30:55.352Z,21.00
2022-10-21T12:33:57.399Z,17.80
2022-10-21T12:36:59.232Z,19.90
2022-10-21T12:40:26.278Z,18.20
2022-10-21T12:43:28.982Z,18.50
2022-10-21T12:46:40.101Z,17.40
2022-10-21T12:49:43.706Z,17.00
2022-10-21T12:52:46.561Z,16.10
2022-10-21T12:55:56.130Z,17.80
2022-10-21T12:59:01.854Z,18.00
2022-10-21T13:02:06.842Z,17.90
2022-10-21T13:05:08.823Z,17.80
2022-10-21T13:08:22.990Z,18.50
2022-10-21T13:11:39.051Z,17.00
2022-10-21T13:14:52.607Z,21.60
2022-10-21T13:17:56.043Z,21.80
2022-10-21T13:20:59.870Z,21.10
2022-10-21T13:24:20.315Z,19.40
2022-10-21T13:31:00.658Z,25.40
2022-10-21T13:34:02.967Z,27.50
2022-10-21T13:37:13.171Z,34.00
2022-10-21T13:40:17.834Z,25.10
2022-10-21T13:43:29.005Z,22.60
2022-10-21T13:46:43.642Z,20.00
2022-10-21T13:49:54.292Z,39.50
2022-10-21T13:52:56.146Z,33.10
2022-10-21T13:56:04.656Z,25.20
2022-10-21T13:59:18.424Z,29.40
2022-10-21T14:02:25.150Z,26.60
2022-10-21T14:05:39.713Z,34.60
2022-10-21T14:08:42.829Z,25.50
2022-10-21T14:11:48.823Z,22.50
2022-10-21T14:14:51.779Z,21.30
2022-10-21T14:17:58.604Z,21.40
2022-10-21T14:21:01.168Z,40.60
2022-10-21T14:24:03.727Z,252.60
2022-10-21T14:27:06.028Z,76.00
2022-10-21T14:30:10.329Z,26.10
2022-10-21T14:33:17.204Z,29.00
2022-10-21T14:36:23.425Z,29.20
2022-10-21T14:39:25.290Z,28.00
2022-10-21T14:42:27.068Z,26.00
2022-10-21T14:45:32.796Z,26.10
2022-10-21T14:48:38.169Z,25.90
2022-10-21T14:51:39.985Z,24.20
2022-10-21T14:54:47.966Z,23.50
2022-10-21T14:57:54.232Z,37.00
2022-10-21T15:00:58.711Z,35.50
2022-10-21T15:04:01.624Z,43.50
2022-10-21T15:07:03.305Z,32.20
2022-10-21T15:10:05.568Z,27.50
2022-10-21T15:13:20.086Z,29.80
2022-10-21T15:16:25.610Z,37.60
2022-10-21T15:19:32.940Z,34.00
2022-10-21T15:22:38.047Z,29.30
2022-10-21T15:25:39.784Z,35.30
2022-10-21T15:28:42.375Z,35.70
2022-10-21T15:31:44.379Z,36.20
2022-10-21T15:34:50.337Z,37.20
2022-10-21T15:37:53.421Z,36.40
2022-10-21T15:40:55.164Z,49.50
2022-10-21T15:43:56.997Z,47.30
2022-10-21T15:47:02.950Z,46.40
2022-10-21T15:50:13.961Z,48.10
2022-10-21T15:53:15.777Z,36.30
2022-10-21T15:56:19.537Z,44.40
2022-10-21T15:59:30.300Z,39.10
2022-10-21T16:02:32.035Z,46.50
2022-10-21T16:05:33.921Z,50.70
2022-10-21T16:08:35.665Z,48.50
2022-10-21T16:11:41.477Z,70.00
2022-10-21T16:14:49.895Z,59.10
2022-10-21T16:17:56.016Z,50.70
2022-10-21T16:20:58.741Z,46.20
2022-10-21T16:24:00.791Z,54.10
2022-10-21T16:27:02.511Z,53.70
2022-10-21T16:30:18.257Z,48.80
2022-10-21T16:33:20.049Z,54.10
2022-10-21T16:36:25.725Z,53.60
2022-10-21T16:39:27.538Z,46.60
2022-10-21T16:42:29.294Z,42.70
2022-10-21T16:45:32.083Z,43.90
2022-10-21T16:48:33.904Z,40.90
2022-10-21T16:51:37.404Z,36.40
2022-10-21T16:54:39.358Z,35.50
2022-10-21T16:57:41.568Z,39.50
2022-10-21T17:00:45.115Z,36.20
2022-10-21T17:03:47.080Z,44.60
2022-10-21T17:06:48.879Z,44.60
2022-10-21T17:09:50.652Z,47.10
2022-10-21T17:12:59.151Z,52.80
2022-10-21T17:16:00.970Z,56.20
2022-10-21T17:19:02.756Z,52.80
2022-10-21T17:22:04.481Z,81.90
2022-10-21T17:25:06.511Z,81.60
2022-10-21T17:28:09.075Z,79.40
2022-10-21T17:31:19.306Z,87.50
2022-10-21T17:34:26.661Z,92.30
2022-10-21T17:37:28.427Z,93.70
2022-10-21T17:40:30.343Z,81.70
2022-10-21T17:43:32.223Z,79.00
2022-10-21T17:46:34.293Z,83.50
2022-10-21T17:49:36.030Z,85.30
2022-10-21T17:52:38.738Z,109.30
2022-10-21T17:55:40.733Z,83.50
2022-10-21T17:58:42.399Z,84.10
2022-10-21T18:01:44.231Z,79.90
2022-10-21T18:04:46.628Z,81.50
2022-10-21T18:07:48.587Z,95.40
2022-10-21T18:10:55.655Z,87.90
2022-10-21T18:13:57.504Z,83.40
2022-10-21T18:16:59.312Z,87.90
2022-10-21T18:20:01.098Z,67.80
2022-10-21T18:23:02.899Z,76.50
2022-10-21T18:26:06.327Z,61.90
2022-10-21T18:29:08.044Z,62.10
2022-10-21T18:32:13.749Z,79.40
2022-10-21T18:35:16.738Z,74.70
2022-10-21T18:38:18.427Z,55.90
2022-10-21T18:41:21.493Z,52.80
2022-10-21T18:44:23.864Z,55.40
2022-10-21T18:47:28.191Z,54.90
2022-10-21T18:50:30.247Z,49.40
2022-10-21T18:53:33.994Z,49.00
2022-10-21T18:56:36.010Z,48.00
2022-10-21T18:59:37.784Z,45.90
2022-10-21T19:02:40.784Z,53.30
2022-10-21T19:05:43.566Z,59.60
2022-10-21T19:08:46.436Z,107.60
2022-10-21T19:11:49.081Z,82.40
2022-10-21T19:14:50.970Z,83.90
2022-10-21T19:17:52.722Z,80.00
2022-10-21T19:20:54.636Z,77.70
2022-10-21T19:23:56.846Z,69.50
2022-10-21T19:26:59.198Z,67.60
2022-10-21T19:30:01.045Z,74.60
2022-10-21T19:33:04.340Z,66.40
2022-10-21T19:36:06.732Z,71.70
2022-10-21T19:39:08.817Z,74.10
2022-10-21T19:42:10.795Z,74.60
2022-10-21T19:45:17.312Z,72.00
2022-10-21T19:48:20.394Z,73.30
2022-10-21T19:51:23.980Z,65.00
2022-10-21T19:54:25.756Z,73.60
2022-10-21T19:57:27.622Z,80.90
2022-10-21T20:00:29.503Z,74.00
2022-10-21T20:03:31.615Z,71.00
2022-10-21T20:06:35.785Z,79.30
2022-10-21T20:09:38.892Z,77.30
2022-10-21T20:12:41.520Z,77.80
2022-10-21T20:15:47.277Z,79.90
2022-10-21T20:18:49.564Z,89.00
2022-10-21T20:21:51.620Z,81.40
2022-10-21T20:24:53.524Z,84.90
2022-10-21T20:27:55.268Z,79.00
2022-10-21T20:31:01.773Z,76.00
2022-10-21T20:34:03.684Z,83.40
2022-10-21T20:37:05.847Z,82.70
2022-10-21T20:40:08.052Z,79.60
2022-10-21T20:43:09.800Z,84.00
2022-10-21T20:46:13.373Z,82.40
2022-10-21T20:49:15.107Z,87.00
2022-10-21T20:52:16.828Z,81.90
2022-10-21T20:55:18.871Z,89.90
2022-10-21T20:58:20.898Z,90.80
2022-10-21T21:01:25.581Z,78.30
2022-10-21T21:04:27.567Z,80.20
2022-10-21T21:07:29.290Z,79.60
2022-10-21T21:10:31.344Z,71.60
2022-10-21T21:13:33.878Z,75.10
2022-10-21T21:16:35.743Z,74.90
2022-10-21T21:19:39.463Z,70.30
2022-10-21T21:22:41.707Z,72.50
2022-10-21T21:25:43.971Z,74.50
2022-10-21T21:28:46.327Z,68.60
2022-10-21T21:31:48.202Z,70.50
2022-10-21T21:34:55.034Z,67.30
2022-10-21T21:37:56.986Z,69.20
2022-10-21T21:40:58.892Z,78.00
2022-10-21T21:44:00.806Z,72.00
2022-10-21T21:47:03.534Z,71.30
2022-10-21T21:50:05.710Z,66.00
2022-10-21T21:53:09.998Z,64.00
2022-10-21T21:56:12.139Z,66.20
2022-10-21T21:59:13.969Z,71.00
2022-10-21T22:02:15.659Z,74.00
2022-10-21T22:05:17.579Z,70.10
2022-10-21T22:08:19.315Z,68.60
2022-10-21T22:11:25.129Z,61.80
2022-10-21T22:14:27.191Z,62.20
2022-10-21T22:17:29.018Z,69.50
2022-10-21T22:20:31.107Z,58.90
2022-10-21T22:23:32.963Z,58.10
2022-10-21T22:26:35.139Z,63.50
2022-10-21T22:29:36.959Z,66.50
2022-10-21T22:32:38.971Z,58.70
2022-10-21T22:35:40.678Z,54.60
2022-10-21T22:38:42.835Z,57.40
2022-10-21T22:41:44.634Z,60.20
2022-10-21T22:44:46.661Z,64.40
2022-10-21T22:47:48.337Z,67.60
2022-10-21T22:50:50.135Z,74.40
2022-10-21T22:53:55.390Z,68.30
2022-10-21T22:56:59.131Z,72.00
2022-10-21T23:00:00.973Z,71.00
2022-10-21T23:03:06.131Z,71.80
2022-10-21T23:06:31.945Z,76.00
2022-10-21T23:09:47.803Z,63.80
2022-10-21T23:13:06.441Z,64.90
2022-10-21T23:16:08.402Z,71.00
2022-10-21T23:19:13.381Z,77.10
2022-10-21T23:22:15.262Z,76.80
2022-10-21T23:25:17.452Z,83.80
2022-10-21T23:31:25.988Z,81.30
2022-10-21T23:34:27.933Z,74.70
2022-10-21T23:37:29.719Z,81.00
2022-10-21T23:43:33.094Z,75.20
2022-10-21T23:49:36.664Z,69.10
2022-10-21T23:52:38.876Z,74.90
2022-10-21T23:55:40.558Z,77.80
